Time;durP1;ratioP1;P1;durP2;ratioP2;P2;SDS_P1;SDS_P2;PMS_P1;PMS_P2;Temp;Humidity;BMP_temperature;BMP_pressure;BME280_temperature;BME280_humidity;BME280_pressure;Samples;Min_cycle;Max_cycle;Signal;HPM_P1;HPM_P2
2022/11/18 00:01:51;;;;;;;11.07;4.55;;;;;;;;;;5053670;28;20492;-80
2022/11/18 00:04:17;;;;;;;9.73;4.90;;;;;;;;;;5037288;28;20070;-80
2022/11/18 00:06:43;;;;;;;10.40;4.85;;;;;;;;;;5037365;28;20040;-80
2022/11/18 00:09:09;;;;;;;9.48;4.53;;;;;;;;;;5037036;28;20082;-80
2022/11/18 00:14:26;;;;;;;9.18;5.25;;;;;;;;;;5049395;28;20049;-80
2022/11/18 00:17:00;;;;;;;12.82;5.63;;;;;;;;;;5028183;28;20409;-80
2022/11/18 00:19:33;;;;;;;12.40;5.90;;;;;;;;;;5053676;28;20055;-80
2022/11/18 00:22:00;;;;;;;14.38;5.90;;;;;;;;;;5053339;28;20057;-80
2022/11/18 00:24:26;;;;;;;11.93;6.15;;;;;;;;;;5053434;28;20045;-80
2022/11/18 00:26:53;;;;;;;10.73;6.03;;;;;;;;;;5020283;28;20037;-80
2022/11/18 00:29:19;;;;;;;11.60;5.88;;;;;;;;;;5053597;28;20449;-80
2022/11/18 00:31:46;;;;;;;14.60;6.53;;;;;;;;;;5053475;28;20041;-80
2022/11/18 00:34:13;;;;;;;13.85;7.00;;;;;;;;;;5054514;28;20466;-79
2022/11/18 00:36:40;;;;;;;12.82;7.15;;;;;;;;;;5053372;28;20037;-79
2022/11/18 00:39:06;;;;;;;12.90;6.80;;;;;;;;;;5054320;28;20045;-78
2022/11/18 00:44:17;;;;;;;14.57;7.47;;;;;;;;;;5053308;28;20486;-78
2022/11/18 00:46:43;;;;;;;14.75;7.05;;;;;;;;;;5053110;28;20064;-77
2022/11/18 00:49:09;;;;;;;16.60;7.72;;;;;;;;;;5053120;28;20102;-78
2022/11/18 00:51:35;;;;;;;15.40;7.95;;;;;;;;;;5052891;28;20124;-78
2022/11/18 00:54:01;;;;;;;15.40;8.70;;;;;;;;;;5044200;28;20041;-78
2022/11/18 00:56:28;;;;;;;15.82;8.00;;;;;;;;;;5048017;28;20068;-78
2022/11/18 00:58:54;;;;;;;14.48;9.00;;;;;;;;;;5036093;28;20124;-78
2022/11/18 01:01:20;;;;;;;16.45;9.20;;;;;;;;;;5053675;28;20051;-78
2022/11/18 01:03:46;;;;;;;16.30;9.40;;;;;;;;;;5035922;28;20041;-78
2022/11/18 01:06:12;;;;;;;14.48;9.20;;;;;;;;;;5052212;28;20075;-77
2022/11/18 01:08:38;;;;;;;17.58;10.38;;;;;;;;;;5052491;28;20062;-78
2022/11/18 01:13:49;;;;;;;19.65;11.20;;;;;;;;;;5053781;28;20049;-80
2022/11/18 01:16:24;;;;;;;18.52;10.70;;;;;;;;;;5051947;28;20045;-80
2022/11/18 01:18:50;;;;;;;22.90;11.43;;;;;;;;;;5035623;28;20056;-80
2022/11/18 01:21:16;;;;;;;18.50;11.05;;;;;;;;;;5051493;28;20049;-80
2022/11/18 01:23:42;;;;;;;24.00;11.93;;;;;;;;;;5052435;28;20053;-80
2022/11/18 01:26:10;;;;;;;19.60;11.88;;;;;;;;;;5051730;28;20029;-80
2022/11/18 01:28:36;;;;;;;18.60;11.07;;;;;;;;;;5034875;28;20032;-80
2022/11/18 01:31:03;;;;;;;20.27;11.43;;;;;;;;;;5051467;28;20045;-80
2022/11/18 01:33:29;;;;;;;23.75;12.20;;;;;;;;;;5052720;28;20040;-80
2022/11/18 01:35:55;;;;;;;19.67;12.05;;;;;;;;;;5051533;28;20037;-80
2022/11/18 01:38:21;;;;;;;24.48;12.65;;;;;;;;;;5053267;28;20043;-78
2022/11/18 01:40:47;;;;;;;24.83;12.23;;;;;;;;;;5053079;28;20087;-78
2022/11/18 01:43:14;;;;;;;22.10;12.57;;;;;;;;;;5051427;28;20080;-77
2022/11/18 01:45:41;;;;;;;18.15;10.13;;;;;;;;;;5053015;28;20545;-77
2022/11/18 01:48:13;;;;;;;26.17;13.38;;;;;;;;;;5051463;28;20037;-77
2022/11/18 01:50:41;;;;;;;23.17;13.20;;;;;;;;;;5051602;28;20041;-78
2022/11/18 01:53:09;;;;;;;22.00;13.80;;;;;;;;;;5051276;28;20067;-77
2022/11/18 01:55:37;;;;;;;22.33;12.07;;;;;;;;;;5052177;28;20052;-78
2022/11/18 01:58:09;;;;;;;26.08;14.60;;;;;;;;;;5051083;28;20037;-77
2022/11/18 02:00:35;;;;;;;23.80;13.80;;;;;;;;;;5052542;28;20072;-77
2022/11/18 02:03:02;;;;;;;27.30;15.82;;;;;;;;;;5034493;28;20044;-78
2022/11/18 02:05:29;;;;;;;28.92;16.23;;;;;;;;;;5037305;28;20052;-77
2022/11/18 02:07:55;;;;;;;27.45;16.48;;;;;;;;;;5051342;28;20048;-77
2022/11/18 02:10:23;;;;;;;32.08;17.67;;;;;;;;;;5052129;28;20045;-78
2022/11/18 02:12:50;;;;;;;38.67;19.95;;;;;;;;;;5052379;28;20049;-79
2022/11/18 02:15:18;;;;;;;35.05;18.15;;;;;;;;;;5052106;28;20041;-80
2022/11/18 02:17:45;;;;;;;44.05;22.40;;;;;;;;;;5051149;28;20509;-79
2022/11/18 02:20:22;;;;;;;47.28;23.48;;;;;;;;;;5050535;28;20037;-80
2022/11/18 02:23:04;;;;;;;38.35;17.63;;;;;;;;;;5050962;28;20049;-80
2022/11/18 02:25:41;;;;;;;52.72;22.60;;;;;;;;;;5051260;28;20098;-80
2022/11/18 02:28:19;;;;;;;50.97;23.60;;;;;;;;;;5050573;28;20043;-80
2022/11/18 02:30:58;;;;;;;42.78;19.33;;;;;;;;;;5050958;28;20079;-78
2022/11/18 02:33:28;;;;;;;48.92;24.45;;;;;;;;;;5052044;28;20076;-80
2022/11/18 02:36:04;;;;;;;52.17;24.10;;;;;;;;;;5052515;28;20037;-80
2022/11/18 02:38:37;;;;;;;54.70;24.77;;;;;;;;;;5038350;28;20087;-79
2022/11/18 02:41:08;;;;;;;53.97;24.58;;;;;;;;;;5050192;28;20048;-78
2022/11/18 02:43:37;;;;;;;62.75;25.23;;;;;;;;;;5052512;28;20041;-78
2022/11/18 02:46:07;;;;;;;58.13;26.55;;;;;;;;;;5049739;28;20047;-78
2022/11/18 02:48:34;;;;;;;53.28;22.65;;;;;;;;;;5051244;28;20482;-78
2022/11/18 02:51:03;;;;;;;55.22;24.33;;;;;;;;;;5038333;28;20045;-78
2022/11/18 02:53:30;;;;;;;56.58;24.83;;;;;;;;;;5050906;28;20115;-78
2022/11/18 02:55:57;;;;;;;52.50;25.10;;;;;;;;;;5051027;28;20052;-78
2022/11/18 02:58:24;;;;;;;60.67;25.38;;;;;;;;;;5047012;28;20041;-78
2022/11/18 03:00:55;;;;;;;61.83;26.70;;;;;;;;;;5045601;28;20059;-78
2022/11/18 03:03:39;;;;;;;60.47;27.20;;;;;;;;;;5046960;28;20045;-78
2022/11/18 03:06:11;;;;;;;58.80;24.23;;;;;;;;;;5050205;28;20045;-80
2022/11/18 03:08:40;;;;;;;60.22;26.02;;;;;;;;;;5051198;28;20486;-80
2022/11/18 03:11:11;;;;;;;65.28;27.38;;;;;;;;;;5051663;28;20049;-80
2022/11/18 03:13:56;;;;;;;60.35;25.30;;;;;;;;;;5052051;28;20513;-80
2022/11/18 03:16:25;;;;;;;66.20;26.92;;;;;;;;;;5039702;28;20425;-79
2022/11/18 03:18:57;;;;;;;61.40;23.98;;;;;;;;;;5051709;28;20037;-80
2022/11/18 03:21:27;;;;;;;61.10;24.40;;;;;;;;;;5050019;28;20050;-80
2022/11/18 03:23:57;;;;;;;67.20;25.60;;;;;;;;;;5047627;28;20064;-79
2022/11/18 03:26:31;;;;;;;63.20;25.88;;;;;;;;;;5050960;28;20432;-79
2022/11/18 03:29:00;;;;;;;65.57;25.90;;;;;;;;;;5050909;28;20033;-80
2022/11/18 03:31:33;;;;;;;57.83;24.27;;;;;;;;;;5034304;28;20431;-80
2022/11/18 03:34:03;;;;;;;66.85;27.45;;;;;;;;;;5050688;28;20078;-80
2022/11/18 03:36:31;;;;;;;53.65;21.48;;;;;;;;;;5034356;28;20398;-79
2022/11/18 03:38:59;;;;;;;59.60;23.38;;;;;;;;;;5050469;28;20041;-78
2022/11/18 03:41:28;;;;;;;58.30;21.55;;;;;;;;;;5051443;28;20041;-78
2022/11/18 03:44:01;;;;;;;65.30;28.25;;;;;;;;;;5038308;28;20063;-79
2022/11/18 03:46:31;;;;;;;63.35;26.25;;;;;;;;;;5036912;28;20123;-78
2022/11/18 03:48:58;;;;;;;57.05;23.05;;;;;;;;;;5037558;28;20044;-80
2022/11/18 03:51:51;;;;;;;59.97;24.38;;;;;;;;;;5051213;28;20048;-82
2022/11/18 03:54:22;;;;;;;68.78;27.35;;;;;;;;;;5050916;28;20060;-80
2022/11/18 03:56:52;;;;;;;59.75;24.35;;;;;;;;;;5040809;28;20048;-80
2022/11/18 03:59:24;;;;;;;66.47;28.08;;;;;;;;;;5053840;28;20053;-80
2022/11/18 04:01:59;;;;;;;54.08;22.23;;;;;;;;;;5054162;28;20061;-80
2022/11/18 04:04:26;;;;;;;64.40;24.75;;;;;;;;;;5053819;28;20056;-80
2022/11/18 04:07:01;;;;;;;61.65;24.65;;;;;;;;;;5053948;28;20055;-79
2022/11/18 04:09:30;;;;;;;66.20;27.53;;;;;;;;;;5024766;28;20041;-80
2022/11/18 04:12:01;;;;;;;47.95;21.20;;;;;;;;;;5036590;28;20037;-80
2022/11/18 04:14:28;;;;;;;60.67;24.88;;;;;;;;;;5053691;28;20049;-80
2022/11/18 04:16:54;;;;;;;55.85;24.00;;;;;;;;;;5053743;28;20052;-80
2022/11/18 04:19:20;;;;;;;60.97;25.75;;;;;;;;;;5063829;28;20036;-81
2022/11/18 04:21:47;;;;;;;51.38;21.40;;;;;;;;;;5057244;28;20048;-80
2022/11/18 04:24:14;;;;;;;49.65;20.08;;;;;;;;;;5053844;28;20059;-81
2022/11/18 04:26:40;;;;;;;57.47;24.92;;;;;;;;;;5054429;28;20122;-80
2022/11/18 04:29:06;;;;;;;55.13;24.35;;;;;;;;;;5049360;28;20041;-78
2022/11/18 04:31:32;;;;;;;43.13;17.42;;;;;;;;;;5047697;28;20375;-78
2022/11/18 04:33:58;;;;;;;55.55;25.30;;;;;;;;;;5048189;28;20029;-77
2022/11/18 04:36:24;;;;;;;52.30;24.48;;;;;;;;;;5067889;28;20123;-78
2022/11/18 04:38:50;;;;;;;57.08;24.92;;;;;;;;;;5054677;28;20050;-77
2022/11/18 04:41:16;;;;;;;50.13;22.60;;;;;;;;;;5053858;28;20071;-78
2022/11/18 04:43:42;;;;;;;46.45;20.20;;;;;;;;;;5053053;28;20082;-77
2022/11/18 04:46:08;;;;;;;52.20;22.45;;;;;;;;;;5054332;28;20040;-78
2022/11/18 04:48:34;;;;;;;50.38;22.13;;;;;;;;;;5052721;28;20072;-78
2022/11/18 04:51:04;;;;;;;55.65;24.88;;;;;;;;;;5036385;28;20033;-78
2022/11/18 04:53:30;;;;;;;50.20;24.08;;;;;;;;;;5048335;28;20048;-78
2022/11/18 04:55:56;;;;;;;50.15;22.75;;;;;;;;;;5036446;28;20127;-78
2022/11/18 04:58:22;;;;;;;49.92;24.05;;;;;;;;;;5052528;28;20498;-78
2022/11/18 05:00:50;;;;;;;50.72;23.17;;;;;;;;;;5051257;28;20481;-78
2022/11/18 05:03:16;;;;;;;42.92;18.45;;;;;;;;;;5065651;28;20033;-78
2022/11/18 05:05:42;;;;;;;47.70;20.85;;;;;;;;;;5052455;28;20033;-78
2022/11/18 05:08:08;;;;;;;44.42;21.58;;;;;;;;;;5036044;28;20128;-78
2022/11/18 05:10:34;;;;;;;57.70;25.20;;;;;;;;;;5043933;28;20033;-78
2022/11/18 05:13:01;;;;;;;60.63;24.80;;;;;;;;;;5047674;28;20437;-78
2022/11/18 05:15:27;;;;;;;57.10;25.85;;;;;;;;;;5053449;28;20045;-78
2022/11/18 05:17:53;;;;;;;61.28;24.90;;;;;;;;;;5036004;28;20398;-78
2022/11/18 05:20:19;;;;;;;60.47;26.83;;;;;;;;;;5052088;28;20067;-78
2022/11/18 05:22:45;;;;;;;49.80;22.42;;;;;;;;;;5051788;28;20099;-78
2022/11/18 05:25:11;;;;;;;59.75;26.70;;;;;;;;;;5053127;28;20095;-79
2022/11/18 05:27:37;;;;;;;57.60;24.55;;;;;;;;;;5051752;28;20073;-78
2022/11/18 05:30:04;;;;;;;54.45;26.15;;;;;;;;;;5035321;28;20047;-78
2022/11/18 05:32:30;;;;;;;57.70;26.95;;;;;;;;;;5051531;28;20037;-79
2022/11/18 05:34:56;;;;;;;56.63;25.48;;;;;;;;;;5052008;28;20045;-78
2022/11/18 05:37:22;;;;;;;62.13;26.70;;;;;;;;;;5035276;28;20037;-78
2022/11/18 05:39:48;;;;;;;61.28;26.60;;;;;;;;;;5051465;28;20044;-78
2022/11/18 05:44:59;;;;;;;57.95;26.45;;;;;;;;;;5051872;28;20049;-78
2022/11/18 05:47:25;;;;;;;67.65;27.67;;;;;;;;;;5035345;28;20507;-78
2022/11/18 05:49:51;;;;;;;64.25;27.75;;;;;;;;;;5051543;28;20175;-78
2022/11/18 05:52:17;;;;;;;52.55;23.15;;;;;;;;;;5051453;28;20052;-78
2022/11/18 05:54:48;;;;;;;60.60;27.38;;;;;;;;;;5049127;28;20063;-78
2022/11/18 05:57:14;;;;;;;60.72;26.77;;;;;;;;;;5052040;28;20394;-78
2022/11/18 05:59:40;;;;;;;65.45;26.55;;;;;;;;;;5051508;28;20452;-78
2022/11/18 06:02:11;;;;;;;65.38;27.67;;;;;;;;;;5053246;28;20079;-78
2022/11/18 06:04:46;;;;;;;62.63;25.98;;;;;;;;;;5051485;28;20549;-78
2022/11/18 06:07:16;;;;;;;63.13;27.08;;;;;;;;;;5051863;28;20355;-77
2022/11/18 06:09:44;;;;;;;59.55;24.40;;;;;;;;;;5052336;28;20090;-77
2022/11/18 06:12:14;;;;;;;56.67;22.50;;;;;;;;;;5051654;28;20567;-78
2022/11/18 06:14:41;;;;;;;62.38;27.15;;;;;;;;;;5052059;28;20041;-78
2022/11/18 06:17:11;;;;;;;58.30;25.00;;;;;;;;;;5052746;28;20414;-78
2022/11/18 06:19:37;;;;;;;63.22;25.55;;;;;;;;;;5053142;28;20067;-78
2022/11/18 06:22:04;;;;;;;68.32;26.73;;;;;;;;;;5052071;28;20107;-78
2022/11/18 06:24:30;;;;;;;52.05;22.85;;;;;;;;;;5051657;28;20481;-78
2022/11/18 06:26:58;;;;;;;65.53;28.20;;;;;;;;;;5051022;28;20045;-78
2022/11/18 06:29:24;;;;;;;65.93;28.02;;;;;;;;;;5052659;28;20048;-79
2022/11/18 06:31:50;;;;;;;61.28;25.67;;;;;;;;;;5051061;28;20418;-78
2022/11/18 06:34:16;;;;;;;63.28;26.27;;;;;;;;;;5051552;28;20420;-78
2022/11/18 06:36:42;;;;;;;62.38;25.05;;;;;;;;;;5051084;28;20084;-78
2022/11/18 06:39:08;;;;;;;71.13;26.73;;;;;;;;;;5020737;28;20041;-79
2022/11/18 06:41:35;;;;;;;58.17;24.15;;;;;;;;;;5050898;28;20122;-78
2022/11/18 06:44:01;;;;;;;45.17;18.23;;;;;;;;;;5051310;28;20045;-79
2022/11/18 06:49:11;;;;;;;57.95;24.58;;;;;;;;;;5049475;28;20448;-78
2022/11/18 06:51:38;;;;;;;53.05;22.15;;;;;;;;;;5050787;28;20049;-77
2022/11/18 06:54:04;;;;;;;56.55;22.17;;;;;;;;;;5046621;28;20089;-78
2022/11/18 06:56:30;;;;;;;53.40;21.77;;;;;;;;;;5052407;28;20047;-78
2022/11/18 06:58:57;;;;;;;58.28;24.05;;;;;;;;;;5052100;28;20087;-79
2022/11/18 07:01:24;;;;;;;56.15;22.30;;;;;;;;;;5048809;28;20072;-80
2022/11/18 07:03:51;;;;;;;57.20;24.98;;;;;;;;;;5039857;28;20533;-80
2022/11/18 07:06:18;;;;;;;59.40;25.40;;;;;;;;;;5034818;28;20047;-80
2022/11/18 07:08:45;;;;;;;56.78;22.98;;;;;;;;;;5050934;28;20033;-80
2022/11/18 07:11:12;;;;;;;52.08;22.67;;;;;;;;;;5050938;28;20056;-80
2022/11/18 07:13:38;;;;;;;55.92;22.55;;;;;;;;;;5050626;28;20045;-80
2022/11/18 07:16:14;;;;;;;52.80;21.25;;;;;;;;;;5050895;28;20045;-81
2022/11/18 07:18:41;;;;;;;56.78;24.13;;;;;;;;;;5034268;28;20053;-80
2022/11/18 07:21:10;;;;;;;52.70;20.52;;;;;;;;;;5023123;28;20080;-79
2022/11/18 07:23:36;;;;;;;43.65;17.23;;;;;;;;;;5047806;28;20060;-80
2022/11/18 07:26:02;;;;;;;55.83;22.25;;;;;;;;;;5050464;28;20082;-80
2022/11/18 07:28:29;;;;;;;59.60;24.77;;;;;;;;;;5054280;28;20045;-80
2022/11/18 07:31:05;;;;;;;49.45;19.35;;;;;;;;;;5071010;28;20041;-81
2022/11/18 07:33:32;;;;;;;59.25;24.02;;;;;;;;;;5054469;28;20052;-79
2022/11/18 07:36:02;;;;;;;57.17;23.88;;;;;;;;;;5037784;28;20386;-80
2022/11/18 07:38:28;;;;;;;52.95;22.73;;;;;;;;;;5054346;28;20045;-80
2022/11/18 07:40:54;;;;;;;49.60;19.98;;;;;;;;;;5054187;28;20040;-81
2022/11/18 07:43:20;;;;;;;56.20;22.52;;;;;;;;;;5054131;28;20096;-80
2022/11/18 07:45:46;;;;;;;56.00;23.33;;;;;;;;;;5059078;28;20034;-80
2022/11/18 07:48:12;;;;;;;53.30;23.48;;;;;;;;;;5064654;28;20401;-79
2022/11/18 07:50:38;;;;;;;50.35;21.02;;;;;;;;;;5037839;28;20397;-80
2022/11/18 07:53:04;;;;;;;53.40;22.13;;;;;;;;;;5053807;28;20041;-80
2022/11/18 07:55:30;;;;;;;47.15;19.98;;;;;;;;;;5055721;28;20170;-80
2022/11/18 07:57:56;;;;;;;51.85;21.40;;;;;;;;;;5053707;28;20041;-80
2022/11/18 08:00:22;;;;;;;45.40;19.80;;;;;;;;;;5055409;28;20425;-82
2022/11/18 08:02:51;;;;;;;47.00;20.95;;;;;;;;;;5053727;28;20073;-80
2022/11/18 08:05:17;;;;;;;42.85;19.75;;;;;;;;;;5067411;28;20045;-80
2022/11/18 08:07:44;;;;;;;51.65;21.80;;;;;;;;;;5053941;28;20037;-80
2022/11/18 08:10:10;;;;;;;49.92;20.27;;;;;;;;;;5037031;28;20064;-80
2022/11/18 08:12:36;;;;;;;44.88;18.40;;;;;;;;;;5054965;28;20049;-80
2022/11/18 08:15:02;;;;;;;48.40;19.90;;;;;;;;;;5020473;28;20048;-80
2022/11/18 08:17:29;;;;;;;43.58;19.73;;;;;;;;;;5055339;28;20170;-79
2022/11/18 08:19:55;;;;;;;41.67;17.25;;;;;;;;;;5039566;28;20077;-81
2022/11/18 08:22:21;;;;;;;43.97;19.73;;;;;;;;;;5054652;28;20053;-79
2022/11/18 08:24:47;;;;;;;44.00;18.75;;;;;;;;;;5053303;28;20041;-81
2022/11/18 08:27:13;;;;;;;39.65;18.77;;;;;;;;;;5037088;28;20040;-80
2022/11/18 08:29:40;;;;;;;41.63;18.85;;;;;;;;;;5053679;28;20512;-80
2022/11/18 08:32:06;;;;;;;43.85;18.70;;;;;;;;;;5053436;28;20037;-80
2022/11/18 08:34:32;;;;;;;43.88;17.30;;;;;;;;;;5036986;28;20451;-82
2022/11/18 08:36:58;;;;;;;36.63;17.15;;;;;;;;;;5052989;28;20049;-81
2022/11/18 08:39:25;;;;;;;30.35;13.60;;;;;;;;;;5053228;28;20086;-80
2022/11/18 08:41:51;;;;;;;41.38;17.63;;;;;;;;;;5036424;28;20041;-79
2022/11/18 08:44:17;;;;;;;41.25;18.90;;;;;;;;;;5053075;28;20041;-80
2022/11/18 08:46:44;;;;;;;38.40;18.38;;;;;;;;;;5054544;28;20037;-80
2022/11/18 08:49:10;;;;;;;39.13;17.77;;;;;;;;;;5054183;28;20126;-79
2022/11/18 08:51:36;;;;;;;39.33;18.05;;;;;;;;;;5036954;28;20051;-79
2022/11/18 08:54:02;;;;;;;39.08;17.38;;;;;;;;;;5054374;28;20053;-79
2022/11/18 08:56:29;;;;;;;36.65;17.20;;;;;;;;;;5054059;28;20128;-79
2022/11/18 08:58:55;;;;;;;39.67;17.33;;;;;;;;;;5054511;28;20045;-80
2022/11/18 09:01:21;;;;;;;43.05;18.38;;;;;;;;;;5054562;28;20045;-81
2022/11/18 09:03:48;;;;;;;35.95;16.40;;;;;;;;;;5056111;28;20052;-81
2022/11/18 09:06:15;;;;;;;30.83;13.68;;;;;;;;;;5054407;28;20073;-80
2022/11/18 09:08:42;;;;;;;37.60;17.98;;;;;;;;;;5053629;28;20039;-80
2022/11/18 09:11:09;;;;;;;38.65;16.73;;;;;;;;;;5036971;28;20490;-80
2022/11/18 09:13:35;;;;;;;35.50;15.13;;;;;;;;;;5053484;28;20367;-80
2022/11/18 09:16:02;;;;;;;32.85;15.75;;;;;;;;;;5053008;28;20501;-80
2022/11/18 09:18:29;;;;;;;35.15;16.02;;;;;;;;;;5053964;28;20051;-80
2022/11/18 09:20:59;;;;;;;34.75;16.38;;;;;;;;;;5053713;28;20037;-80
2022/11/18 09:23:25;;;;;;;34.50;15.07;;;;;;;;;;5052547;28;20052;-80
2022/11/18 09:26:02;;;;;;;32.67;14.95;;;;;;;;;;5052267;28;20134;-81
2022/11/18 09:28:28;;;;;;;31.27;16.15;;;;;;;;;;5052226;28;20073;-80
2022/11/18 09:30:55;;;;;;;37.13;15.77;;;;;;;;;;5052391;28;20052;-80
2022/11/18 09:33:21;;;;;;;36.80;15.68;;;;;;;;;;5035257;28;20048;-80
2022/11/18 09:35:47;;;;;;;33.67;15.25;;;;;;;;;;5051914;28;20041;-80
2022/11/18 09:38:13;;;;;;;31.60;14.45;;;;;;;;;;5051944;28;20440;-80
2022/11/18 09:40:45;;;;;;;28.02;13.63;;;;;;;;;;5052050;28;20041;-80
2022/11/18 09:43:27;;;;;;;27.60;13.80;;;;;;;;;;5052762;28;20059;-80
2022/11/18 09:45:56;;;;;;;32.05;14.63;;;;;;;;;;5051920;28;20044;-80
2022/11/18 09:49:11;;;;;;;28.33;13.43;;;;;;;;;;5040365;28;20038;-80
2022/11/18 09:51:08;;;;;;;;;;;;;;;;;;5031685;28;20049;-80
2022/11/18 09:53:34;;;;;;;28.27;12.63;;;;;;;;;;5043890;28;19917;-80
2022/11/18 09:56:02;;;;;;;24.80;11.75;;;;;;;;;;5051275;28;20041;-80
2022/11/18 09:58:33;;;;;;;28.20;12.60;;;;;;;;;;5052846;28;20037;-80
2022/11/18 10:00:59;;;;;;;21.73;9.50;;;;;;;;;;5035191;28;20367;-80
2022/11/18 10:03:27;;;;;;;26.95;12.35;;;;;;;;;;5051487;28;20037;-80
2022/11/18 10:06:09;;;;;;;24.40;12.00;;;;;;;;;;5051372;28;20045;-80
2022/11/18 10:08:38;;;;;;;26.23;11.95;;;;;;;;;;5035068;28;20052;-80
2022/11/18 10:11:17;;;;;;;24.77;11.38;;;;;;;;;;5052280;28;20033;-80
2022/11/18 10:14:02;;;;;;;21.83;10.07;;;;;;;;;;5031934;28;20364;-82
2022/11/18 10:16:43;;;;;;;23.50;10.82;;;;;;;;;;5047083;28;20490;-80
2022/11/18 10:19:15;;;;;;;25.77;11.57;;;;;;;;;;5050998;28;20045;-80
2022/11/18 10:21:54;;;;;;;23.15;11.70;;;;;;;;;;5034820;28;20486;-80
2022/11/18 10:24:22;;;;;;;20.48;9.40;;;;;;;;;;5050622;28;20502;-80
2022/11/18 10:26:53;;;;;;;25.75;12.45;;;;;;;;;;5051236;28;20043;-80
2022/11/18 10:29:19;;;;;;;24.27;12.05;;;;;;;;;;5050958;28;20394;-80
2022/11/18 10:32:02;;;;;;;26.73;11.57;;;;;;;;;;5050836;28;20041;-82
2022/11/18 10:34:29;;;;;;;25.65;12.23;;;;;;;;;;5052293;28;20397;-80
2022/11/18 10:37:21;;;;;;;27.15;12.50;;;;;;;;;;5050977;28;20045;-80
2022/11/18 10:39:51;;;;;;;27.77;12.85;;;;;;;;;;5051120;28;20076;-80
2022/11/18 10:42:23;;;;;;;29.33;12.45;;;;;;;;;;5050350;28;20045;-77
2022/11/18 10:44:49;;;;;;;23.50;12.18;;;;;;;;;;5051235;28;20083;-77
2022/11/18 10:47:15;;;;;;;25.65;11.82;;;;;;;;;;5050492;28;20433;-77
2022/11/18 10:49:41;;;;;;;19.42;9.68;;;;;;;;;;5052192;28;20033;-77
2022/11/18 10:52:14;;;;;;;21.88;10.52;;;;;;;;;;5050466;28;20077;-77
2022/11/18 10:54:40;;;;;;;24.48;11.93;;;;;;;;;;5051901;28;20040;-77
2022/11/18 10:57:12;;;;;;;21.23;11.02;;;;;;;;;;5050866;28;20120;-78
2022/11/18 10:59:38;;;;;;;18.05;8.73;;;;;;;;;;5034037;28;20045;-78
2022/11/18 11:02:14;;;;;;;18.13;7.15;;;;;;;;;;5045941;28;20148;-77
2022/11/18 11:04:40;;;;;;;21.10;9.70;;;;;;;;;;5051626;28;20059;-77
2022/11/18 11:07:17;;;;;;;18.40;9.00;;;;;;;;;;5054795;28;20102;-77
2022/11/18 11:09:44;;;;;;;15.57;8.50;;;;;;;;;;5054816;28;20470;-78
2022/11/18 11:12:15;;;;;;;16.73;8.45;;;;;;;;;;5038101;28;20044;-78
2022/11/18 11:14:56;;;;;;;20.08;9.73;;;;;;;;;;5054993;28;20382;-77
2022/11/18 11:17:22;;;;;;;17.55;7.15;;;;;;;;;;5030730;28;20549;-77
2022/11/18 11:20:08;;;;;;;20.33;9.85;;;;;;;;;;5054344;28;20098;-78
2022/11/18 11:22:34;;;;;;;17.63;8.75;;;;;;;;;;5039290;28;20044;-76
2022/11/18 11:25:00;;;;;;;19.25;9.82;;;;;;;;;;5053459;28;20057;-77
2022/11/18 11:27:59;;;;;;;21.50;9.77;;;;;;;;;;5041283;28;20060;-77
2022/11/18 11:30:25;;;;;;;20.15;8.98;;;;;;;;;;5055182;28;20435;-77
2022/11/18 11:33:10;;;;;;;17.67;8.25;;;;;;;;;;5070256;28;20043;-77
2022/11/18 11:35:39;;;;;;;19.15;8.70;;;;;;;;;;5066613;28;20045;-77
2022/11/18 11:38:31;;;;;;;24.92;10.43;;;;;;;;;;5074235;28;20048;-77
2022/11/18 11:41:16;;;;;;;27.17;11.23;;;;;;;;;;5051291;28;20053;-77
2022/11/18 11:44:01;;;;;;;15.55;7.82;;;;;;;;;;5074148;28;20090;-78
2022/11/18 11:46:39;;;;;;;20.95;7.78;;;;;;;;;;5073498;28;20040;-77
2022/11/18 11:49:11;;;;;;;21.00;9.27;;;;;;;;;;5074379;28;20523;-77
2022/11/18 11:51:43;;;;;;;21.20;10.15;;;;;;;;;;5073438;28;20044;-77
2022/11/18 11:54:30;;;;;;;27.42;11.35;;;;;;;;;;5061228;28;20547;-77
2022/11/18 11:56:56;;;;;;;;;;;;;;;;;;5044476;28;20057;-76
2022/11/18 11:59:25;;;;;;;18.20;8.48;;;;;;;;;;5054017;28;19916;-77
2022/11/18 12:01:56;;;;;;;25.25;11.48;;;;;;;;;;5040351;28;20061;-77
2022/11/18 12:04:22;;;;;;;24.02;11.40;;;;;;;;;;5070082;28;20051;-77
2022/11/18 12:06:50;;;;;;;22.70;10.15;;;;;;;;;;5023192;28;20038;-76
2022/11/18 12:09:31;;;;;;;20.65;9.43;;;;;;;;;;5053741;28;20045;-77
2022/11/18 12:12:37;;;;;;;23.88;10.73;;;;;;;;;;5053171;28;20043;-77
2022/11/18 12:15:21;;;;;;;25.52;11.02;;;;;;;;;;4980662;28;20372;-77
2022/11/18 12:18:07;;;;;;;22.48;11.10;;;;;;;;;;4996626;28;20431;-77
2022/11/18 12:20:43;;;;;;;19.98;9.48;;;;;;;;;;5035148;28;20056;-77
2022/11/18 12:23:14;;;;;;;22.77;10.55;;;;;;;;;;5053192;28;20063;-77
2022/11/18 12:25:46;;;;;;;21.52;11.18;;;;;;;;;;5016814;28;20120;-77
2022/11/18 12:28:21;;;;;;;15.02;6.63;;;;;;;;;;5047830;28;20047;-77
2022/11/18 12:30:47;;;;;;;23.20;11.70;;;;;;;;;;5073393;28;20041;-76
2022/11/18 12:33:15;;;;;;;25.25;11.32;;;;;;;;;;5054372;28;20072;-77
2022/11/18 12:35:46;;;;;;;21.42;10.45;;;;;;;;;;5036092;28;20060;-77
2022/11/18 12:38:27;;;;;;;14.35;6.55;;;;;;;;;;5053068;28;20041;-78
2022/11/18 12:40:53;;;;;;;20.85;9.75;;;;;;;;;;5053537;28;20040;-77
2022/11/18 12:46:29;;;;;;;18.73;9.70;;;;;;;;;;5053287;28;20512;-77
2022/11/18 12:48:55;;;;;;;20.27;9.52;;;;;;;;;;5053048;28;20042;-76
2022/11/18 12:51:23;;;;;;;13.85;6.30;;;;;;;;;;5054519;28;20053;-77
2022/11/18 12:53:50;;;;;;;22.98;9.90;;;;;;;;;;5036680;28;20041;-76
2022/11/18 12:56:22;;;;;;;16.70;8.32;;;;;;;;;;5036355;28;20130;-76
2022/11/18 12:58:51;;;;;;;17.05;8.63;;;;;;;;;;5052775;28;20044;-76
2022/11/18 13:01:23;;;;;;;19.60;8.15;;;;;;;;;;5052723;28;20036;-78
2022/11/18 13:03:49;;;;;;;19.02;9.48;;;;;;;;;;5036669;28;20033;-77
2022/11/18 13:06:26;;;;;;;14.68;6.53;;;;;;;;;;5053034;28;20076;-80
2022/11/18 13:08:54;;;;;;;19.45;7.85;;;;;;;;;;5053370;28;20041;-82
2022/11/18 13:19:35;;;;;;;13.55;6.47;;;;;;;;;;5054580;28;20049;-84
2022/11/18 13:24:51;;;;;;;15.13;7.05;;;;;;;;;;5052539;28;20157;-81
2022/11/18 13:27:24;;;;;;;13.63;6.38;;;;;;;;;;5053147;28;20056;-80
2022/11/18 13:30:00;;;;;;;13.48;5.90;;;;;;;;;;5053456;28;20128;-79
2022/11/18 13:32:27;;;;;;;13.63;6.28;;;;;;;;;;5053361;28;20115;-84
2022/11/18 13:34:55;;;;;;;10.52;4.93;;;;;;;;;;5020523;28;20052;-80
2022/11/18 13:37:23;;;;;;;11.98;5.47;;;;;;;;;;5052777;28;20067;-83
2022/11/18 13:39:50;;;;;;;13.52;6.13;;;;;;;;;;5052373;28;20033;-84
2022/11/18 13:42:17;;;;;;;15.77;7.68;;;;;;;;;;5035923;28;20052;-83
2022/11/18 13:44:45;;;;;;;8.45;4.18;;;;;;;;;;5042903;28;20052;-81
2022/11/18 13:47:24;;;;;;;16.58;7.65;;;;;;;;;;5048018;28;20124;-80
2022/11/18 13:49:50;;;;;;;15.13;7.47;;;;;;;;;;5052769;28;20045;-80
2022/11/18 13:52:18;;;;;;;16.50;7.15;;;;;;;;;;5053006;28;20044;-80
2022/11/18 13:54:45;;;;;;;16.25;7.85;;;;;;;;;;5052059;28;20041;-82
2022/11/18 13:57:19;;;;;;;15.70;7.70;;;;;;;;;;5053089;28;20486;-82
2022/11/18 13:59:46;;;;;;;15.23;6.63;;;;;;;;;;5035098;28;20486;-82
2022/11/18 14:02:13;;;;;;;14.65;7.72;;;;;;;;;;5051970;28;20041;-80
2022/11/18 14:04:47;;;;;;;18.90;8.07;;;;;;;;;;5051575;28;20171;-80
2022/11/18 14:07:24;;;;;;;13.25;6.05;;;;;;;;;;5051916;28;20033;-83
2022/11/18 14:09:55;;;;;;;21.08;8.77;;;;;;;;;;5051229;28;20114;-80
2022/11/18 14:12:23;;;;;;;19.45;7.90;;;;;;;;;;5034896;28;20045;-77
2022/11/18 14:14:49;;;;;;;17.70;7.95;;;;;;;;;;5051388;28;20041;-76
2022/11/18 14:17:34;;;;;;;17.85;6.53;;;;;;;;;;5051625;28;20367;-79
2022/11/18 14:20:07;;;;;;;13.30;6.15;;;;;;;;;;5052645;28;20426;-77
2022/11/18 14:22:33;;;;;;;19.88;8.63;;;;;;;;;;5042236;28;20494;-77
2022/11/18 14:25:14;;;;;;;19.45;8.68;;;;;;;;;;5046490;28;20132;-78
2022/11/18 14:27:41;;;;;;;19.60;9.30;;;;;;;;;;5050869;28;20048;-76
2022/11/18 14:30:26;;;;;;;22.92;10.27;;;;;;;;;;5050914;28;20045;-77
2022/11/18 14:33:12;;;;;;;21.17;9.00;;;;;;;;;;5051964;28;20048;-76
2022/11/18 14:35:39;;;;;;;20.70;9.20;;;;;;;;;;5050471;28;20040;-76
2022/11/18 14:38:15;;;;;;;20.67;9.32;;;;;;;;;;5051109;28;20370;-76
2022/11/18 14:40:41;;;;;;;25.20;10.45;;;;;;;;;;5050809;28;20033;-76
2022/11/18 14:43:09;;;;;;;24.23;10.50;;;;;;;;;;5065848;28;20045;-76
2022/11/18 14:45:36;;;;;;;19.95;8.25;;;;;;;;;;5075530;28;20037;-79
2022/11/18 14:48:03;;;;;;;23.48;10.07;;;;;;;;;;5079591;28;20036;-77
2022/11/18 14:50:29;;;;;;;24.67;9.85;;;;;;;;;;5080173;28;20048;-76
2022/11/18 14:52:58;;;;;;;23.25;10.38;;;;;;;;;;5056058;28;20057;-80
2022/11/18 14:55:25;;;;;;;27.38;11.68;;;;;;;;;;5059144;28;20037;-80
2022/11/18 14:57:54;;;;;;;25.15;11.13;;;;;;;;;;5063526;28;20052;-79
2022/11/18 15:00:20;;;;;;;26.80;11.57;;;;;;;;;;5083874;28;20060;-77
2022/11/18 15:02:47;;;;;;;27.38;11.15;;;;;;;;;;5069354;28;20076;-77